createdAt,value
2023-11-02T00:03:30.829Z,1.70
2023-11-02T00:07:32.671Z,1.85
2023-11-02T00:11:59.620Z,2.53
2023-11-02T00:16:04.038Z,2.50
2023-11-02T00:20:09.072Z,3.17
2023-11-02T00:24:11.285Z,3.25
2023-11-02T00:28:13.264Z,2.60
2023-11-02T00:32:15.420Z,1.30
2023-11-02T00:36:17.153Z,2.62
2023-11-02T00:40:20.953Z,3.53
2023-11-02T00:44:24.473Z,3.83
2023-11-02T00:48:32.859Z,3.80
2023-11-02T00:52:35.222Z,2.35
2023-11-02T00:56:39.909Z,2.83
2023-11-02T01:01:12.554Z,2.50
2023-11-02T01:05:27.998Z,2.60
2023-11-02T01:09:52.492Z,4.53
2023-11-02T01:13:56.268Z,3.92
2023-11-02T01:17:58.141Z,2.83
2023-11-02T01:22:00.141Z,1.37
2023-11-02T01:26:03.016Z,1.55
2023-11-02T01:30:11.538Z,4.12
2023-11-02T01:34:20.633Z,0.77
2023-11-02T01:38:24.867Z,3.05
2023-11-02T01:42:33.376Z,3.03
2023-11-02T01:46:40.102Z,1.17
2023-11-02T01:51:03.264Z,3.70
2023-11-02T01:55:20.394Z,1.58
2023-11-02T01:59:22.078Z,1.48
2023-11-02T02:03:35.147Z,0.75
2023-11-02T02:07:37.583Z,3.15
2023-11-02T02:12:05.307Z,1.12
2023-11-02T02:16:22.068Z,3.22
2023-11-02T02:20:27.748Z,3.00
2023-11-02T02:24:53.538Z,4.97
2023-11-02T02:29:13.231Z,3.58
2023-11-02T02:33:33.709Z,2.22
2023-11-02T02:37:44.600Z,2.90
2023-11-02T02:41:53.737Z,3.10
2023-11-02T02:45:57.217Z,1.73
2023-11-02T02:50:02.297Z,4.75
2023-11-02T02:54:14.504Z,6.50
2023-11-02T02:58:20.737Z,3.78
2023-11-02T03:02:31.037Z,5.83
2023-11-02T03:06:33.014Z,1.98
2023-11-02T03:10:37.866Z,6.18
2023-11-02T03:14:42.265Z,3.83
2023-11-02T03:18:44.013Z,4.15
2023-11-02T03:22:46.896Z,4.18
2023-11-02T03:26:55.209Z,8.52
2023-11-02T03:31:21.979Z,3.15
2023-11-02T03:35:31.466Z,5.65
2023-11-02T03:40:08.768Z,4.03
2023-11-02T03:44:22.671Z,7.73
2023-11-02T03:48:56.936Z,3.55
2023-11-02T03:53:12.002Z,4.87
2023-11-02T03:57:23.977Z,3.83
2023-11-02T04:01:45.941Z,5.82
2023-11-02T04:05:51.103Z,3.30
2023-11-02T04:10:00.866Z,4.55
2023-11-02T04:14:13.343Z,3.80
2023-11-02T04:18:15.174Z,4.22
2023-11-02T04:22:17.010Z,3.25
2023-11-02T04:26:18.795Z,3.47
2023-11-02T04:30:20.676Z,1.90
2023-11-02T04:34:22.607Z,4.68
2023-11-02T04:38:24.330Z,2.30
2023-11-02T04:42:26.063Z,8.35
2023-11-02T04:46:27.814Z,2.78
2023-11-02T04:50:29.539Z,3.33
2023-11-02T04:54:32.564Z,2.17
2023-11-02T04:58:34.373Z,4.18
2023-11-02T05:02:36.077Z,6.35
2023-11-02T05:06:39.281Z,3.92
2023-11-02T05:10:40.995Z,2.45
2023-11-02T05:14:44.628Z,4.35
2023-11-02T05:18:46.447Z,4.10
2023-11-02T05:22:48.193Z,3.72
2023-11-02T05:26:49.945Z,3.05
2023-11-02T05:30:51.662Z,2.30
2023-11-02T05:34:53.443Z,0.77
2023-11-02T05:38:55.232Z,2.97
2023-11-02T05:42:56.941Z,2.47
2023-11-02T05:46:58.677Z,1.30
2023-11-02T05:51:01.050Z,1.42
2023-11-02T05:55:02.815Z,5.85
2023-11-02T05:59:06.228Z,2.37
2023-11-02T06:03:09.036Z,3.75
2023-11-02T06:07:10.877Z,0.70
2023-11-02T06:11:12.769Z,3.37
2023-11-02T06:15:14.959Z,1.17
2023-11-02T06:19:16.744Z,3.15
2023-11-02T06:23:18.448Z,1.62
2023-11-02T06:27:21.723Z,5.45
2023-11-02T06:31:23.528Z,1.65
2023-11-02T06:35:25.669Z,1.55
2023-11-02T06:39:27.590Z,3.05
2023-11-02T06:43:30.102Z,1.58
2023-11-02T06:47:31.961Z,4.10
2023-11-02T06:51:33.832Z,2.72
2023-11-02T06:55:35.647Z,4.60
2023-11-02T06:59:37.594Z,4.03
2023-11-02T07:03:40.044Z,2.15
2023-11-02T07:07:44.067Z,3.90
2023-11-02T07:11:45.802Z,2.72
2023-11-02T07:15:47.766Z,1.77
2023-11-02T07:19:49.824Z,1.83
2023-11-02T07:23:51.993Z,1.05
2023-11-02T07:27:53.995Z,2.78
2023-11-02T07:31:55.700Z,1.00
2023-11-02T07:35:57.405Z,3.95
2023-11-02T07:39:59.179Z,2.83
2023-11-02T07:44:00.954Z,1.67
2023-11-02T07:48:03.691Z,1.27
2023-11-02T07:52:06.298Z,4.30
2023-11-02T07:56:10.005Z,0.68
2023-11-02T08:00:12.510Z,1.52
2023-11-02T08:04:14.449Z,1.23
2023-11-02T08:08:16.422Z,1.20
2023-11-02T08:12:21.861Z,6.20
2023-11-02T08:16:23.693Z,7.97
2023-11-02T08:20:25.375Z,0.88
2023-11-02T08:24:27.254Z,1.70
2023-11-02T08:28:32.170Z,3.35
2023-11-02T08:32:34.813Z,0.62
2023-11-02T08:36:36.602Z,1.50
2023-11-02T08:40:39.318Z,2.00
2023-11-02T08:44:45.283Z,0.85
2023-11-02T08:48:49.586Z,2.28
2023-11-02T08:52:51.376Z,1.00
2023-11-02T08:56:53.117Z,0.95
2023-11-02T09:00:55.286Z,1.65
2023-11-02T09:04:57.295Z,1.55
2023-11-02T09:08:59.239Z,1.62
2023-11-02T09:13:01.083Z,3.22
2023-11-02T09:17:02.996Z,1.00
2023-11-02T09:21:05.660Z,4.57
2023-11-02T09:25:07.794Z,1.52
2023-11-02T09:29:09.574Z,2.90
2023-11-02T09:33:12.161Z,3.47
2023-11-02T09:37:14.015Z,5.80
2023-11-02T09:41:15.901Z,1.70
2023-11-02T09:45:18.399Z,3.30
2023-11-02T09:49:20.194Z,1.37
2023-11-02T09:53:22.297Z,3.62
2023-11-02T09:57:24.432Z,0.75
2023-11-02T10:01:27.229Z,1.80
2023-11-02T10:05:29.708Z,2.65
2023-11-02T10:09:31.482Z,1.85
2023-11-02T10:13:33.881Z,3.20
2023-11-02T10:17:40.235Z,2.03
2023-11-02T10:21:42.202Z,3.33
2023-11-02T10:25:44.035Z,5.60
2023-11-02T10:29:46.680Z,2.45
2023-11-02T10:33:52.606Z,4.12
2023-11-02T10:37:55.442Z,3.70
2023-11-02T10:41:59.350Z,1.67
2023-11-02T10:46:02.158Z,4.70
2023-11-02T10:50:05.597Z,6.25
2023-11-02T10:54:45.356Z,3.90
2023-11-02T10:58:50.060Z,2.58
2023-11-02T11:02:52.400Z,3.00
2023-11-02T11:06:57.035Z,3.75
2023-11-02T11:11:00.152Z,7.12
2023-11-02T11:15:03.680Z,7.82
2023-11-02T11:19:06.508Z,5.78
2023-11-02T11:23:09.534Z,3.97
2023-11-02T11:27:12.028Z,5.25
2023-11-02T11:31:55.208Z,8.93
2023-11-02T11:36:26.589Z,5.20
2023-11-02T11:40:30.360Z,5.15
2023-11-02T11:44:32.310Z,4.78
2023-11-02T11:48:42.224Z,5.78
2023-11-02T11:52:44.069Z,2.75
2023-11-02T11:56:47.358Z,4.35
2023-11-02T12:00:53.261Z,4.93
2023-11-02T12:04:58.843Z,7.03
2023-11-02T12:09:02.026Z,4.97
2023-11-02T12:13:05.431Z,3.35
2023-11-02T12:17:07.414Z,5.60
2023-11-02T12:21:15.788Z,7.93
2023-11-02T12:25:20.740Z,7.72
2023-11-02T12:29:23.588Z,7.00
2023-11-02T12:33:25.434Z,3.53
2023-11-02T12:37:28.205Z,8.32
2023-11-02T12:41:32.158Z,9.20
2023-11-02T12:45:34.185Z,3.40
2023-11-02T12:49:36.099Z,6.45
2023-11-02T12:53:38.546Z,8.98
2023-11-02T12:57:40.624Z,11.10
2023-11-02T13:01:43.973Z,7.03
2023-11-02T13:05:45.932Z,11.57
2023-11-02T13:10:21.805Z,4.60
2023-11-02T13:14:25.399Z,6.40
2023-11-02T13:18:28.490Z,6.57
2023-11-02T13:22:30.416Z,7.20
2023-11-02T13:26:33.340Z,6.28
2023-11-02T13:30:35.735Z,6.35
2023-11-02T13:34:40.649Z,11.98
2023-11-02T13:38:45.994Z,6.80
2023-11-02T13:42:48.244Z,11.98
2023-11-02T13:46:50.081Z,6.40
2023-11-02T13:50:52.079Z,6.87
2023-11-02T13:54:53.817Z,6.78
2023-11-02T13:58:55.659Z,7.18
2023-11-02T14:02:57.474Z,7.05
2023-11-02T14:06:59.533Z,2.78
2023-11-02T14:11:06.843Z,8.02
2023-11-02T14:15:09.399Z,5.85
2023-11-02T14:19:12.944Z,4.03
2023-11-02T14:23:18.057Z,5.03
2023-11-02T14:27:23.521Z,2.37
2023-11-02T14:31:26.081Z,5.47
2023-11-02T14:35:28.013Z,7.00
2023-11-02T14:39:29.991Z,9.43
2023-11-02T14:43:32.427Z,5.70
2023-11-02T14:47:34.304Z,10.52
2023-11-02T14:51:36.095Z,7.65
2023-11-02T14:55:38.813Z,8.23
2023-11-02T14:59:40.666Z,3.25
2023-11-02T15:03:42.704Z,6.10
2023-11-02T15:07:44.840Z,5.85
2023-11-02T15:11:46.604Z,7.10
2023-11-02T15:15:48.577Z,13.32
2023-11-02T15:19:50.457Z,7.28
2023-11-02T15:23:52.886Z,6.90
2023-11-02T15:27:54.758Z,11.93
2023-11-02T15:31:57.039Z,8.82
2023-11-02T15:36:00.264Z,8.55
2023-11-02T15:40:02.358Z,10.43
2023-11-02T15:44:05.397Z,9.02
2023-11-02T15:48:07.325Z,8.43
2023-11-02T15:52:09.431Z,9.43
2023-11-02T15:56:17.351Z,7.20
2023-11-02T16:00:20.159Z,8.93
2023-11-02T16:04:22.031Z,7.85
2023-11-02T16:08:23.810Z,9.30
2023-11-02T16:12:25.609Z,11.20
2023-11-02T16:16:27.393Z,9.90
2023-11-02T16:20:29.208Z,10.68
2023-11-02T16:24:31.057Z,7.22
2023-11-02T16:28:33.601Z,8.57
2023-11-02T16:32:35.614Z,10.35
2023-11-02T16:36:46.863Z,9.88
2023-11-02T16:40:48.770Z,8.52
2023-11-02T16:44:50.925Z,5.65
2023-11-02T16:48:52.753Z,10.10
2023-11-02T16:52:54.598Z,10.20
2023-11-02T16:56:56.375Z,7.93
2023-11-02T17:00:58.187Z,10.77
2023-11-02T17:04:59.937Z,5.78
2023-11-02T17:09:01.796Z,9.57
2023-11-02T17:13:04.662Z,9.00
2023-11-02T17:17:06.490Z,8.25
2023-11-02T17:21:11.011Z,7.22
2023-11-02T17:25:12.782Z,11.18
2023-11-02T17:29:14.595Z,8.05
2023-11-02T17:33:16.559Z,9.15
2023-11-02T17:37:18.382Z,12.05
2023-11-02T17:41:20.776Z,6.03
2023-11-02T17:45:22.670Z,15.23
2023-11-02T17:49:24.626Z,6.90
2023-11-02T17:53:26.566Z,9.90
2023-11-02T17:57:28.468Z,11.10
2023-11-02T18:01:30.248Z,11.95
2023-11-02T18:05:32.939Z,5.55
2023-11-02T18:09:34.879Z,10.38
2023-11-02T18:13:36.695Z,7.80
2023-11-02T18:17:38.512Z,12.27
2023-11-02T18:21:40.601Z,8.73
2023-11-02T18:25:42.684Z,8.73
2023-11-02T18:29:44.965Z,9.07
2023-11-02T18:33:46.900Z,8.05
2023-11-02T18:37:50.626Z,10.63
2023-11-02T18:41:52.450Z,9.32
2023-11-02T18:45:54.351Z,9.63
2023-11-02T18:49:56.319Z,7.87
2023-11-02T18:53:58.279Z,11.27
2023-11-02T18:58:00.516Z,8.32
2023-11-02T19:02:02.456Z,11.05
2023-11-02T19:06:04.458Z,6.78
2023-11-02T19:10:07.003Z,10.55
2023-11-02T19:14:10.226Z,9.80
2023-11-02T19:18:12.600Z,9.80
2023-11-02T19:22:16.053Z,9.02
2023-11-02T19:26:17.955Z,8.35
2023-11-02T19:30:19.836Z,8.32
2023-11-02T19:34:23.638Z,5.68
2023-11-02T19:38:25.613Z,6.18
2023-11-02T19:42:27.552Z,8.50
2023-11-02T19:46:29.501Z,9.45
2023-11-02T19:50:31.398Z,6.75
2023-11-02T19:54:33.536Z,7.62
2023-11-02T19:58:35.380Z,8.20
2023-11-02T20:02:37.540Z,9.25
2023-11-02T20:06:39.530Z,7.60
2023-11-02T20:10:41.519Z,7.32
2023-11-02T20:14:43.560Z,5.82
2023-11-02T20:18:45.517Z,8.80
2023-11-02T20:22:47.368Z,10.65
2023-11-02T20:26:49.110Z,9.23
2023-11-02T20:30:51.025Z,11.10
2023-11-02T20:34:52.949Z,9.40
2023-11-02T20:38:54.899Z,7.95
2023-11-02T20:42:56.755Z,6.75
2023-11-02T20:46:58.552Z,6.32
2023-11-02T20:51:01.338Z,8.07
2023-11-02T20:55:03.548Z,6.35
2023-11-02T20:59:05.470Z,6.12
2023-11-02T21:03:07.230Z,4.53
2023-11-02T21:07:10.266Z,4.22
2023-11-02T21:11:24.031Z,3.37
2023-11-02T21:15:27.095Z,7.57
2023-11-02T21:19:29.074Z,4.57
2023-11-02T21:23:32.096Z,3.87
2023-11-02T21:27:34.172Z,5.05
2023-11-02T21:31:35.976Z,5.07
2023-11-02T21:35:37.882Z,7.22
2023-11-02T21:39:40.391Z,9.02
2023-11-02T21:43:43.520Z,6.65
2023-11-02T21:47:45.586Z,6.45
2023-11-02T21:51:47.724Z,4.03
2023-11-02T21:55:49.883Z,5.47
2023-11-02T21:59:51.998Z,5.78
2023-11-02T22:03:53.802Z,8.30
2023-11-02T22:07:55.641Z,9.30
2023-11-02T22:11:57.396Z,6.78
2023-11-02T22:16:00.065Z,5.05
2023-11-02T22:20:01.906Z,7.62
2023-11-02T22:24:04.485Z,5.05
2023-11-02T22:28:06.551Z,8.43
2023-11-02T22:32:08.628Z,8.07
2023-11-02T22:36:11.559Z,6.30
2023-11-02T22:40:13.759Z,7.05
2023-11-02T22:44:15.616Z,7.50
2023-11-02T22:48:17.501Z,8.48
2023-11-02T22:52:19.313Z,4.85
2023-11-02T22:56:21.157Z,5.45
2023-11-02T23:00:33.067Z,4.28
2023-11-02T23:04:35.152Z,6.07
2023-11-02T23:08:37.049Z,4.97
2023-11-02T23:12:38.969Z,6.65
2023-11-02T23:16:42.543Z,3.83
2023-11-02T23:20:45.535Z,4.47
2023-11-02T23:24:47.565Z,4.10
2023-11-02T23:28:59.129Z,3.83
2023-11-02T23:33:06.048Z,4.10
2023-11-02T23:37:08.635Z,3.90
2023-11-02T23:41:14.661Z,4.60
2023-11-02T23:45:22.296Z,5.75
2023-11-02T23:49:24.156Z,3.22
2023-11-02T23:53:25.924Z,2.10
2023-11-02T23:57:27.645Z,2.00
